CXYCAPITAL CITY
METARs for airports near CXY, sorted by distance:
N 0 nm 346' KCXY 142156Z VRB03KT 10SM CLR 36/15 A2993
E 4 nm 310' KMDT 142156Z 25003KT 10SM SCT045 34/21 A2993
S 18 nm 494' KTHV 142153Z 14007KT 10SM FEW070 34/20 A2995
NE 18 nm 487' KMUI 142155Z 00000KT 10SM CLR 34/15 A2993
E 26 nm 402' KLNS 142153Z 14010KT 10SM FEW075 30/22 A2996
N 36 nm 463' KSEG 142153Z 35003KT 10SM CLR 34/17 A2994
NE 36 nm 1729' KZER 142215Z 25004KT 10SM CLR 29/17 A3004
S 37 nm 789' KDMW 142205Z 23006KT 10SM CLR 37/16 A2997
E 41 nm 343' KRDG 142154Z 14007KT 10SM CLR 31/22 A2995
NW 44 nm 818' KRVL 142215Z 00000KT 10SM CLR 35/17 A2995
E 47 nm 660' KMQS 142215Z 00000KT 10SM CLR 28/24 A3000
SW 50 nm 703' KHGR 142153Z 17006KT 10SM CLR 36/18 A2994
SW 53 nm 308' KFDK 142147Z 00000KT 10SM CLR 37/16 A2994
SE 55 nm 44' KAPG 122034Z VRB05KT 7SM -RA SCT030 OVC050 26/22 A3014
S 57 nm 21' KMTN 142155Z 12010KT 10SM CLR 31/23 A2997
NW 59 nm 1231' KUNV 142153Z 28004KT 10SM SCT085 32/14 A2998
E 59 nm 308' KPTW 122254Z 00000KT 9SM -RA FEW035 BKN090 OVC120 26/22 A3018
E 59 nm 464' KOQN 142215Z 00000KT 10SM SCT065 SCT080 SCT100 27/22 A2999
NE 60 nm 1603' KHZL 142215Z 21003KT CLR 28/19 A3005
N 61 nm 528' KIPT 142154Z 23008KT 10SM FEW080 34/15 A2992
S 63 nm 143' KBWI 142154Z 17006KT 10SM FEW065 FEW250 34/22 A2994
S 64 nm 538' KGAI 142156Z VRB03KT 3SM BR OVC070 A2997
SE 65 nm 79' KILG 142227Z 10005KT 10SM VCTS CLR 30/22 A2997
E 65 nm 399' KXLL 142215Z 18009KT 10SM CLR 30/22 A2997
W 67 nm 1503' KAOO 142153Z 28009KT 10SM FEW100 32/14 A3000
S 68 nm 150' KFME 142209Z 17006KT 10SM CLR 31/22 A2998
E 68 nm 525' KUKT 142215Z 14003KT 10SM CLR 28/23 A2999
NE 69 nm 393' KABE 142151Z 19011KT 10SM CLR 30/19 A2996
SW 71 nm 564' KMRB 142153Z 24007KT 10SM CLR 36/12 A2993
E 72 nm 567' KCKZ 142215Z 00000KT 10SM CLR 27/23 A2999
E 72 nm 301' KLOM 142215Z 00000KT 10SM CLR 29/23 A2998
S 74 nm 48' KCGS 142205Z 12006KT 10SM CLR 33/23 A2995
SW 75 nm 389' KJYO 142215Z 21006KT 170V230 10SM SCT100 SCT120 36/21 A2996
W 76 nm 1161' KHMZ 142210Z 26009KT 10SM CLR 34/11 A2998
E 76 nm 35' KPHL 142154Z 00000KT 10SM FEW028 BKN050 BKN250 28/24 A2997
E 79 nm 393' KDYL 142154Z 00000KT 10SM FEW090 28/21 A2997
S 81 nm 312' KIAD 142152Z 21010KT 10SM FEW090 FEW140 35/18 A2995
S 82 nm 14' KDCA 142152Z 20007KT 10SM FEW080 FEW250 37/17 A2993
S 84 nm 279' KADW 142155Z 13010KT 10SM CLR 31/21 A2993
NE 84 nm 961' KAVP 142154Z 29007KT 10SM FEW055 33/19 A2996
E 84 nm 119' KPNE 142154Z 00000KT 10SM CLR 29/19 A2997
NE 86 nm 1915' KMPO 142153Z 23009KT 10SM 28/14 A3004
NW 87 nm 1516' KFIG 142154Z 25007G15KT 10SM BKN100 31/16 A3001
SW 87 nm 726' KOKV 142215Z 26003KT 10SM SCT100 35/14 A2995
W 91 nm 2284' KJST 142154Z 27010G16KT 10SM SCT070 SCT095 BKN120 30/13 A3006
SE 91 nm 28' KDOV 142155Z 20014KT 10SM FEW170 33/21 A2994
S 91 nm 73' KDAA 142155Z 18005KT 10SM CLR 36/17 A2992
SE 92 nm 72' KESN 142145Z 22005KT 10SM CLR 30/22 A2997
E 93 nm 212' KTTN 142153Z 00000KT 10SM CLR 28/20 A2996
E 93 nm 52' KVAY 142154Z 00000KT 10SM CLR 27/22 A2996
TAFs for airports near CXY, sorted by distance:
E 4 nm 310' KMDT KMDT 142127Z 1421/1518 27005KT P6SM SCT040
  FM150000 15003KT 6SM BR SCT120
  FM150800 VRB03KT 4SM BR BKN250
  FM151300 28007KT P6SM SCT250
NE 18 nm 487' KMUI TAF KMUI 121900Z 1219/1401 VRB06KT 8000 -SHRA SCT050 BKN070 QNH3014INS
  BECMG 1301/1302 VRB06KT 8000 -SHRA BKN025 QNH3017INS
  BECMG 1303/1304 VRB06KT 4800 -SHRA BKN010 OVC050 QNH3014INS
  TEMPO 1304/1306 22015G25KT 3200 -TSRA BKN006CB OVC050
  BECMG 1306/1307 VRB06KT 8000 BR OVC006 QNH3016INS
  BECMG 1313/1314 VRB06KT 8000 BR OVC050 QNH3009INS TX26/1219Z TN20/1311Z
E 26 nm 402' KLNS KLNS 142127Z 1421/1518 16006KT P6SM SCT070
  FM150200 15003KT 6SM BR SCT120
  FM150800 VRB03KT 4SM BR BKN250
  FM151300 28007KT P6SM SCT250
E 41 nm 343' KRDG TAF KRDG 141720Z 1418/1518 24005KT P6SM SCT040
  TEMPO 1418/1419 3SM TSRA BKN030CB
  FM142300 VRB03KT P6SM FEW100
  FM151500 26007KT P6SM FEW070
S 57 nm 21' KMTN KMTN 142001Z 1420/1518 15012G20KT P6SM FEW250
  FM150000 20005KT P6SM FEW250
  FM150400 17005KT P6SM FEW250
  FM151600 21005KT P6SM FEW200
NW 59 nm 1231' KUNV KUNV 142127Z 1421/1518 28006KT P6SM SCT080
  FM150300 00000KT P6SM BKN090
  FM151400 25008KT P6SM SCT050 BKN250
N 61 nm 528' KIPT KIPT 142127Z 1421/1518 25007KT P6SM FEW080
  FM150200 00000KT P6SM BKN100
  FM151400 25007KT P6SM SCT050 BKN250
S 63 nm 143' KBWI TAF
  AMD KBWI 142102Z 1421/1524 18009G15KT P6SM VCTS SCT060CB SCT250
  FM142300 20004KT P6SM FEW200
  FM150500 17004KT P6SM FEW250
  FM151600 25005KT P6SM FEW200
SE 65 nm 79' KILG TAF KILG 141720Z 1418/1518 16008KT P6SM SCT040
  TEMPO 1418/1421 VRB20G30KT 3SM TSRA BKN040CB
  FM150100 18005KT P6SM FEW100
  FM151500 24006KT P6SM FEW060
W 67 nm 1503' KAOO TAF
  AMD KAOO 142127Z 1421/1518 26005KT P6SM SCT080
  FM150400 00000KT P6SM BKN090
  FM151400 25008KT P6SM SCT050 BKN250
NE 69 nm 393' KABE TAF KABE 141720Z 1418/1518 VRB05KT P6SM SCT060
  FM142300 VRB02KT P6SM FEW100
  FM151500 26007KT P6SM FEW070
SW 71 nm 564' KMRB KMRB 141727Z 1418/1518 25006KT P6SM FEW250
  FM142300 21005KT P6SM FEW250
  FM150300 17004KT P6SM FEW250
  FM151000 23005KT P6SM FEW200
  FM151400 28004KT P6SM FEW200
E 76 nm 35' KPHL TAF
  AMD KPHL 142052Z 1421/1524 VRB20G30KT 6SM -TSRA BKN050CB
  FM142115 19010KT P6SM SCT060
  FM150200 20007KT P6SM FEW100
  FM151400 26008KT P6SM FEW070
S 81 nm 312' KIAD KIAD 142102Z 1421/1524 23009KT P6SM FEW250
  FM142300 21005KT P6SM FEW250
  FM150300 18004KT P6SM FEW250
  FM151600 26005KT P6SM FEW250
S 82 nm 14' KDCA KDCA 142102Z 1421/1524 21008G16KT P6SM VCTS SCT060CB SCT250
  FM142200 08008G16KT P6SM FEW200
  FM150500 17005KT P6SM FEW200
  FM151600 26005KT P6SM FEW200
S 84 nm 279' KADW TAF
  AMD KADW 141910Z 1419/1523 27012KT 9999 VCTS SCT050CB QNH2997INS
  TEMPO 1419/1421 29012G18KT 8000 -TSRA BKN050CB
  BECMG 1420/1421 22006KT 9999 NSW SCT050 QNH2994INS
  BECMG 1500/1501 17006KT 9999 FEW070 QNH2992INS
  BECMG 1506/1507 26006KT 9999 SCT060 SCT250 QNH2986INS
  BECMG 1518/1519 23012KT 9999 -SHRA VCTS BKN040CB QNH2983INS TX38/1419Z TN23/1509Z
NE 84 nm 961' KAVP KAVP 141728Z 1418/1518 26008KT P6SM SCT060
  FM150200 13003KT P6SM SCT060
E 84 nm 119' KPNE KPNE 142059Z 1421/1518 VRB12G20KT P6SM VCTS BKN050CB
  FM142115 14008KT P6SM SCT060
  FM150100 VRB03KT P6SM FEW100
  FM151500 24005KT P6SM SCT060
W 91 nm 2284' KJST KJST 142127Z 1421/1518 26009G18KT P6SM SCT060
  FM150100 27005KT P6SM VCSH SCT040 BKN100
  FM150700 23006KT P6SM OVC100
SE 91 nm 28' KDOV TAF KDOV 141600Z 1416/1522 18006KT 9999 SCT095 QNH3005INS
  BECMG 1417/1418 22006KT 9999 BKN100 QNH2997INS
  TEMPO 1418/1422 9000 -SHRA
  BECMG 1502/1503 23009KT 9999 SCT080 QNH2993INS TX33/1420Z TN24/1510Z
S 91 nm 73' KDAA TAF KDAA 121200Z 1212/1318 VRB05KT 9999 VCSH SCT030 BKN060 OVC100 QNH2996INS
  BECMG 1212/1213 03006KT 9000 -SHRA FEW015 BKN030 OVC070 QNH3000INS
  BECMG 1213/1214 04007KT 8000 -SHRA VCTS SCT015CB OVC030 QNH3011INS
  TEMPO 1214/1301 VRB12G20KT 4800 TSRA BR SCT008 OVC015CB
  BECMG 1302/1303 VRB06KT 9000 -RA OVC010 QNH3010INS
  BECMG 1306/1307 VRB05KT 4800 -RA BR OVC008 QNH3011INS
  BECMG 1312/1313 16007KT 8000 -SHRA VCTS SCT009 BKN015CB OVC030 QNH3012INS TX27/1220Z TN24/1310Z
E 93 nm 212' KTTN TAF KTTN 141720Z 1418/1518 24006KT P6SM SCT050
  TEMPO 1418/1421 VRB20G30KT 3SM -TSRA BKN050CB
  FM150100 VRB03KT P6SM FEW100
  FM151500 24005KT P6SM SCT060

Shortcut to this page: http://wxbay.com.

Data may contain errors.